Time;durP1;ratioP1;P1;durP2;ratioP2;P2;SDS_P1;SDS_P2;PMS_P1;PMS_P2;Temp;Humidity;BMP_temperature;BMP_pressure;BME280_temperature;BME280_humidity;BME280_pressure;Samples;Min_cycle;Max_cycle;Signal;HPM_P1;HPM_P2
2023/06/23 00:02:19;;;;;;;10.95;7.90;;;;;;;22.90;85.49;101349.66;5028592;28;20025;-90
2023/06/23 00:04:44;;;;;;;11.77;8.07;;;;;;;22.98;85.69;101372.72;5045584;28;20029;-91
2023/06/23 00:07:10;;;;;;;12.00;8.20;;;;;;;22.94;85.35;101374.00;5046049;28;20038;-90
2023/06/23 00:09:37;;;;;;;11.25;7.95;;;;;;;22.87;85.58;101370.22;5029198;28;20548;-90
2023/06/23 00:12:07;;;;;;;12.38;8.90;;;;;;;22.86;84.99;101374.66;5029381;28;20402;-90
2023/06/23 00:14:34;;;;;;;12.23;6.55;;;;;;;22.89;83.97;101368.28;5029391;28;20037;-91
2023/06/23 00:16:59;;;;;;;11.50;6.85;;;;;;;22.90;83.67;101356.75;5012780;28;20022;-90
2023/06/23 00:19:24;;;;;;;10.77;6.90;;;;;;;22.90;83.66;101356.75;5029047;28;20546;-89
2023/06/23 00:21:51;;;;;;;11.20;8.30;;;;;;;22.77;83.76;101357.00;5029328;28;20445;-90
2023/06/23 00:24:17;;;;;;;9.45;7.35;;;;;;;22.73;84.83;101371.44;5016116;28;20026;-92
2023/06/23 00:26:43;;;;;;;10.30;7.18;;;;;;;22.71;84.71;101369.88;4977198;28;20025;-89
2023/06/23 00:29:09;;;;;;;14.77;8.27;;;;;;;22.73;84.55;101379.34;5003731;28;20033;-90
2023/06/23 00:31:34;;;;;;;10.15;7.13;;;;;;;22.75;84.55;101373.94;5029402;28;20403;-90
2023/06/23 00:34:00;;;;;;;11.38;8.27;;;;;;;22.68;85.12;101370.16;5012529;28;20072;-89
2023/06/23 00:36:30;;;;;;;12.18;8.10;;;;;;;22.63;85.25;101367.09;5045692;28;20493;-90
2023/06/23 00:38:56;;;;;;;12.70;8.15;;;;;;;22.69;85.08;101369.19;5013135;28;20450;-90
2023/06/23 00:41:22;;;;;;;11.70;7.68;;;;;;;22.62;85.23;101355.72;5012579;28;20053;-92
2023/06/23 00:43:49;;;;;;;15.60;8.98;;;;;;;22.58;85.45;101363.06;5028880;28;20060;-92
2023/06/23 00:46:16;;;;;;;11.63;8.13;;;;;;;22.63;84.98;101367.94;5028675;28;20033;-89
2023/06/23 00:48:42;;;;;;;13.00;7.72;;;;;;;22.51;85.81;101367.19;5028878;28;20029;-90
2023/06/23 00:51:08;;;;;;;11.48;7.70;;;;;;;22.56;85.56;101372.91;5029204;28;20376;-89
2023/06/23 00:53:34;;;;;;;11.68;7.45;;;;;;;22.43;85.72;101364.41;5032220;28;20095;-90
2023/06/23 00:56:00;;;;;;;12.57;8.65;;;;;;;22.50;85.77;101375.22;5031729;28;20021;-90
2023/06/23 00:58:26;;;;;;;13.90;8.05;;;;;;;22.24;85.76;101330.06;5015928;28;20415;-90
2023/06/23 01:00:51;;;;;;;11.82;8.02;;;;;;;22.41;85.36;101358.41;5032647;28;20040;-92
2023/06/23 01:03:16;;;;;;;11.25;7.75;;;;;;;22.34;85.17;101367.84;5032097;28;20510;-91
2023/06/23 01:05:42;;;;;;;14.02;8.00;;;;;;;22.18;85.43;101357.78;5015977;28;20087;-90
2023/06/23 01:08:32;;;;;;;12.32;8.43;;;;;;;22.13;85.77;101361.81;5030741;28;20476;-88
2023/06/23 01:11:08;;;;;;;11.77;7.88;;;;;;;22.10;86.18;101364.69;5032182;28;20033;-90
2023/06/23 01:13:34;;;;;;;11.73;7.93;;;;;;;21.97;86.30;101339.34;4999399;28;20121;-91
2023/06/23 01:16:24;;;;;;;12.13;7.57;;;;;;;22.11;85.98;101343.47;5013424;28;20113;-90
2023/06/23 01:19:37;;;;;;;10.25;7.38;;;;;;;21.98;86.21;101327.03;5048312;28;20042;-89
2023/06/23 01:22:11;;;;;;;11.30;7.40;;;;;;;21.92;86.44;101336.25;4991301;28;20035;-89
2023/06/23 01:25:14;;;;;;;11.55;7.75;;;;;;;22.02;86.24;101336.31;5028700;28;20038;-89
2023/06/23 01:28:14;;;;;;;10.65;7.50;;;;;;;22.07;85.47;101335.97;5031869;28;20108;-90
2023/06/23 01:30:39;;;;;;;9.60;7.32;;;;;;;21.90;85.90;101319.75;5032825;28;20079;-91
2023/06/23 01:33:07;;;;;;;14.15;8.07;;;;;;;21.95;85.88;101341.28;5032109;28;20034;-89
2023/06/23 01:35:36;;;;;;;11.13;7.75;;;;;;;21.87;86.20;101327.94;5031712;28;20029;-90
2023/06/23 01:38:14;;;;;;;12.52;8.50;;;;;;;21.75;86.39;101313.19;5031473;28;20029;-91
2023/06/23 01:40:40;;;;;;;12.82;8.10;;;;;;;21.79;86.43;101324.28;5030055;28;20049;-89
2023/06/23 01:43:06;;;;;;;10.88;7.80;;;;;;;21.63;86.46;101293.13;5015016;28;20032;-89
2023/06/23 01:45:32;;;;;;;10.13;7.32;;;;;;;21.73;86.43;101315.97;5031318;28;20041;-89
2023/06/23 01:48:01;;;;;;;10.90;7.78;;;;;;;21.75;86.26;101326.34;5014937;28;20410;-89
2023/06/23 01:50:26;;;;;;;10.35;7.63;;;;;;;21.74;86.46;101328.16;5014186;28;20090;-91
2023/06/23 01:52:52;;;;;;;10.43;7.45;;;;;;;21.68;86.45;101325.19;5031722;28;20033;-89
2023/06/23 01:55:17;;;;;;;11.32;7.30;;;;;;;21.71;86.32;101330.19;5031145;28;20029;-91
2023/06/23 01:57:43;;;;;;;11.07;7.65;;;;;;;21.70;85.86;101318.84;5031213;28;20497;-89
2023/06/23 02:00:13;;;;;;;12.38;8.25;;;;;;;21.75;85.82;101335.09;5030964;28;20064;-92
2023/06/23 02:02:40;;;;;;;13.68;8.00;;;;;;;21.77;85.79;101327.88;5014704;28;20033;-89
2023/06/23 02:05:05;;;;;;;15.25;8.50;;;;;;;21.72;85.74;101316.91;5030893;28;20450;-89
2023/06/23 02:07:31;;;;;;;12.65;7.63;;;;;;;21.70;85.45;101328.53;5014531;28;20100;-90
2023/06/23 02:09:56;;;;;;;12.65;8.00;;;;;;;21.63;85.92;101327.38;5031328;28;20400;-90
2023/06/23 02:12:22;;;;;;;18.10;8.07;;;;;;;21.50;86.63;101324.13;5031124;28;20027;-89
2023/06/23 02:14:47;;;;;;;9.82;7.50;;;;;;;21.48;87.22;101319.81;5030968;28;20037;-91
2023/06/23 02:17:13;;;;;;;11.93;8.25;;;;;;;21.51;87.16;101321.34;5014298;28;20033;-90
2023/06/23 02:19:39;;;;;;;11.10;8.25;;;;;;;21.62;87.01;101330.97;5014499;28;20025;-89
2023/06/23 02:22:12;;;;;;;15.13;8.88;;;;;;;21.64;86.84;101336.97;5013443;28;20044;-89
2023/06/23 02:24:38;;;;;;;14.57;8.00;;;;;;;21.63;87.18;101333.50;5030157;28;20567;-89
2023/06/23 02:27:04;;;;;;;11.85;7.75;;;;;;;21.42;87.18;101296.63;5014123;28;20457;-90
2023/06/23 02:29:30;;;;;;;13.07;8.18;;;;;;;21.63;87.10;101325.59;5030536;28;20030;-90
2023/06/23 02:31:55;;;;;;;12.55;7.25;;;;;;;21.67;87.21;101336.69;5013485;28;20380;-89
2023/06/23 02:34:20;;;;;;;13.18;7.97;;;;;;;21.62;87.01;101328.34;5014044;28;20032;-89
2023/06/23 02:36:48;;;;;;;17.30;8.63;;;;;;;21.65;86.96;101338.63;5016013;28;20033;-89
2023/06/23 02:39:15;;;;;;;11.90;8.52;;;;;;;21.68;86.88;101341.00;5010829;28;20032;-90
2023/06/23 02:41:41;;;;;;;11.45;7.90;;;;;;;21.48;86.54;101319.81;5004031;28;20115;-89
2023/06/23 02:44:13;;;;;;;11.27;7.13;;;;;;;21.58;86.32;101337.47;5010238;28;20068;-91
2023/06/23 02:46:38;;;;;;;12.18;8.20;;;;;;;21.50;86.42;101329.38;5010072;28;20034;-90
2023/06/23 02:49:06;;;;;;;11.55;8.40;;;;;;;21.41;86.82;101321.28;5010585;28;20080;-90
2023/06/23 02:51:31;;;;;;;12.55;7.65;;;;;;;21.45;86.84;101327.97;5010322;28;20478;-89
2023/06/23 02:54:00;;;;;;;17.05;7.75;;;;;;;21.48;86.79;101340.88;5010951;28;20037;-89
2023/06/23 02:56:27;;;;;;;10.98;7.53;;;;;;;21.49;86.70;101341.72;5037110;28;20029;-90
2023/06/23 02:58:56;;;;;;;10.85;8.10;;;;;;;21.47;85.76;101323.41;5046470;28;20037;-91
2023/06/23 03:01:22;;;;;;;13.35;8.13;;;;;;;21.46;85.88;101329.66;5046089;28;20462;-90
2023/06/23 03:03:47;;;;;;;13.68;8.63;;;;;;;21.47;85.83;101335.75;5029798;28;20025;-91
2023/06/23 03:06:20;;;;;;;13.73;8.10;;;;;;;21.39;86.15;101341.63;5029135;28;20030;-90
2023/06/23 03:08:47;;;;;;;15.30;8.00;;;;;;;21.40;85.74;101345.94;5030175;28;20041;-91
2023/06/23 03:11:15;;;;;;;21.67;7.40;;;;;;;21.41;85.64;101346.78;5014053;28;20110;-90
2023/06/23 03:13:40;;;;;;;12.38;7.88;;;;;;;21.68;84.33;101348.91;5028729;28;20025;-91
2023/06/23 03:16:07;;;;;;;12.50;8.00;;;;;;;22.22;80.48;101343.41;5029644;28;20502;-90
2023/06/23 03:18:32;;;;;;;15.00;7.75;;;;;;;22.46;78.95;101353.59;5029600;28;20035;-92
2023/06/23 03:20:58;;;;;;;15.52;8.02;;;;;;;22.29;79.88;101351.59;5030004;28;20093;-89
2023/06/23 03:23:23;;;;;;;19.48;8.20;;;;;;;22.79;77.05;101351.56;5029638;28;20574;-89
2023/06/23 03:25:49;;;;;;;15.00;7.90;;;;;;;22.80;76.67;101353.22;5030372;28;20029;-90
2023/06/23 03:28:17;;;;;;;19.80;8.05;;;;;;;22.56;78.08;101367.63;5029526;28;20036;-90
2023/06/23 03:30:47;;;;;;;19.83;8.43;;;;;;;22.86;76.58;101377.31;5013464;28;20036;-91
2023/06/23 03:33:14;;;;;;;13.10;7.35;;;;;;;22.73;76.74;101374.06;5046360;28;20054;-90
2023/06/23 03:35:42;;;;;;;55.55;14.10;;;;;;;22.78;76.93;101392.94;5029475;28;20030;-88
2023/06/23 03:38:09;;;;;;;15.77;8.68;;;;;;;22.61;77.70;101394.44;5045811;28;20034;-89
2023/06/23 03:40:38;;;;;;;16.15;8.38;;;;;;;22.75;76.51;101376.56;5008255;28;20058;-88
2023/06/23 03:43:11;;;;;;;13.15;8.00;;;;;;;22.84;76.60;101395.09;5009104;28;20032;-90
2023/06/23 03:45:37;;;;;;;10.45;7.40;;;;;;;22.67;77.85;101405.41;5028972;28;20033;-90
2023/06/23 03:48:04;;;;;;;19.15;8.40;;;;;;;22.42;79.02;101386.47;5028120;28;20044;-91
2023/06/23 03:50:31;;;;;;;15.82;9.73;;;;;;;22.27;80.64;101385.97;5029113;28;20040;-90
2023/06/23 03:52:57;;;;;;;18.95;10.15;;;;;;;22.36;80.83;101404.63;5029608;28;20475;-90
2023/06/23 03:55:22;;;;;;;12.90;8.93;;;;;;;22.21;81.33;101386.50;5028648;28;20107;-91
2023/06/23 03:57:48;;;;;;;14.95;10.07;;;;;;;22.13;81.86;101388.16;5014350;28;20491;-89
2023/06/23 04:00:14;;;;;;;20.73;12.63;;;;;;;22.31;82.20;101405.00;4998663;28;20030;-91
2023/06/23 04:02:40;;;;;;;19.85;13.80;;;;;;;22.38;81.70;101411.41;5009798;28;20026;-91
2023/06/23 04:05:05;;;;;;;19.42;10.88;;;;;;;22.32;82.43;101401.41;5019782;28;20034;-91
2023/06/23 04:07:31;;;;;;;18.15;11.27;;;;;;;22.25;83.66;101400.28;5026673;28;20026;-89
2023/06/23 04:09:58;;;;;;;17.48;10.48;;;;;;;22.25;84.71;101400.28;5009418;28;20037;-90
2023/06/23 04:12:24;;;;;;;18.58;10.45;;;;;;;22.49;83.78;101397.31;5025898;28;20080;-92
2023/06/23 04:14:51;;;;;;;18.55;9.90;;;;;;;22.42;83.49;101410.19;5025747;28;20487;-89
2023/06/23 04:17:19;;;;;;;20.88;9.57;;;;;;;22.27;84.43;101406.25;5009319;28;20087;-88
2023/06/23 04:19:45;;;;;;;17.02;10.15;;;;;;;22.19;85.04;101404.25;5025678;28;20143;-90
2023/06/23 04:22:10;;;;;;;16.15;10.68;;;;;;;22.27;84.97;101416.78;4993042;28;20403;-85
2023/06/23 04:24:37;;;;;;;19.95;10.35;;;;;;;22.23;85.03;101383.75;5008445;28;20030;-84
2023/06/23 04:27:03;;;;;;;18.48;10.27;;;;;;;22.65;83.73;101402.91;5028147;28;20037;-85
2023/06/23 04:29:28;;;;;;;18.73;12.52;;;;;;;22.78;82.38;101418.50;5036073;28;20033;-89
2023/06/23 04:31:54;;;;;;;16.08;10.95;;;;;;;22.80;82.36;101408.63;5034541;28;20025;-89
2023/06/23 04:34:19;;;;;;;21.55;12.88;;;;;;;23.03;80.95;101407.47;5038461;28;20025;-91
2023/06/23 04:36:50;;;;;;;27.70;14.60;;;;;;;23.00;81.25;101394.53;5033752;28;20033;-88
2023/06/23 04:39:19;;;;;;;19.05;12.60;;;;;;;22.86;82.23;101408.97;5012640;28;20068;-89
2023/06/23 04:41:46;;;;;;;18.35;11.15;;;;;;;22.86;84.92;101405.50;5018451;28;20045;-90
2023/06/23 04:44:11;;;;;;;17.88;12.07;;;;;;;22.69;83.69;101382.38;5032783;28;20056;-87
2023/06/23 04:46:39;;;;;;;18.67;11.30;;;;;;;22.84;83.32;101387.16;5031723;28;20091;-87
2023/06/23 04:49:08;;;;;;;18.92;11.43;;;;;;;22.95;83.73;101383.56;5017933;28;20462;-91
2023/06/23 04:51:35;;;;;;;29.05;12.98;;;;;;;23.00;83.06;101362.88;5028734;28;20036;-90
2023/06/23 04:54:03;;;;;;;15.82;10.45;;;;;;;22.96;82.86;101374.69;5030602;28;20112;-90
2023/06/23 04:56:32;;;;;;;15.43;10.63;;;;;;;23.04;83.90;101398.59;5030947;28;20029;-86
2023/06/23 04:58:59;;;;;;;12.25;9.32;;;;;;;23.12;84.60;101393.47;5030745;28;20021;-92
2023/06/23 05:01:24;;;;;;;20.88;11.50;;;;;;;23.18;84.88;101384.97;5031761;28;20030;-87
2023/06/23 05:03:50;;;;;;;18.40;10.90;;;;;;;23.71;81.10;101395.13;5031524;28;20498;-90
2023/06/23 05:06:16;;;;;;;19.58;10.73;;;;;;;23.82;80.04;101388.84;5014980;28;20033;-87
2023/06/23 05:08:42;;;;;;;17.92;9.93;;;;;;;23.55;81.82;101379.00;5029475;28;20422;-89
2023/06/23 05:11:08;;;;;;;15.77;10.85;;;;;;;23.59;81.28;101396.25;4997626;28;20033;-85
2023/06/23 05:13:34;;;;;;;14.23;9.52;;;;;;;23.75;81.04;101404.44;5024677;28;20025;-90
2023/06/23 05:16:00;;;;;;;19.50;10.45;;;;;;;23.77;80.92;101390.25;5032668;28;20502;-89
2023/06/23 05:18:25;;;;;;;18.73;9.57;;;;;;;24.00;81.54;101413.56;5031324;28;20108;-90
2023/06/23 05:20:51;;;;;;;16.15;10.07;;;;;;;24.25;79.77;101411.25;5016869;28;20407;-88
2023/06/23 05:23:17;;;;;;;22.67;10.75;;;;;;;24.12;79.21;101401.00;5015095;28;20044;-87
2023/06/23 05:25:43;;;;;;;15.73;9.68;;;;;;;24.18;79.52;101418.94;5036398;28;20512;-89
2023/06/23 05:28:09;;;;;;;14.90;9.50;;;;;;;24.13;80.43;101407.13;5002154;28;20026;-86
2023/06/23 05:30:35;;;;;;;15.15;10.48;;;;;;;24.36;79.63;101419.03;5013815;28;20033;-90
2023/06/23 05:33:00;;;;;;;18.35;10.25;;;;;;;24.41;79.66;101418.63;5021308;28;20075;-91
2023/06/23 05:35:26;;;;;;;16.77;10.55;;;;;;;24.44;79.25;101415.66;5029814;28;20041;-92
2023/06/23 05:37:51;;;;;;;17.58;11.15;;;;;;;24.31;77.61;101385.13;5005277;28;20033;-91
2023/06/23 05:40:17;;;;;;;21.40;11.43;;;;;;;24.40;79.56;101424.88;5020299;28;20068;-90
2023/06/23 05:42:42;;;;;;;16.23;10.77;;;;;;;24.37;80.25;101420.69;5017430;28;20029;-95
2023/06/23 05:45:09;;;;;;;14.88;10.60;;;;;;;24.48;78.76;101419.69;5020096;28;20048;-89
2023/06/23 05:47:40;;;;;;;18.27;11.80;;;;;;;24.49;78.47;101402.84;5029727;28;20116;-89
2023/06/23 05:50:13;;;;;;;16.70;11.13;;;;;;;24.54;78.85;101388.19;5028263;28;20048;-92
2023/06/23 05:52:38;;;;;;;18.48;11.80;;;;;;;24.57;77.40;101408.22;5027348;28;20041;-86
2023/06/23 05:55:04;;;;;;;18.95;12.27;;;;;;;24.43;77.99;101408.72;5038344;28;20419;-89
2023/06/23 05:57:31;;;;;;;18.48;11.52;;;;;;;24.39;77.69;101408.19;5014828;28;20033;-87
2023/06/23 06:00:13;;;;;;;19.10;11.75;;;;;;;24.40;79.52;101409.03;5030120;28;20037;-87
2023/06/23 06:02:40;;;;;;;21.45;13.63;;;;;;;24.44;78.55;101407.75;5045093;28;20037;-89
2023/06/23 06:05:07;;;;;;;19.70;13.18;;;;;;;24.45;78.50;101389.06;5030391;28;20029;-88
2023/06/23 06:07:34;;;;;;;20.88;12.02;;;;;;;24.46;78.19;101393.38;5021975;28;20499;-89
2023/06/23 06:10:01;;;;;;;21.67;12.57;;;;;;;24.55;78.93;101404.91;5030607;28;20033;-88
2023/06/23 06:12:26;;;;;;;22.40;12.32;;;;;;;24.70;78.60;101410.53;5030954;28;20036;-91
2023/06/23 06:14:52;;;;;;;18.88;12.35;;;;;;;24.72;76.46;101414.69;5010936;28;20037;-88
2023/06/23 06:17:17;;;;;;;20.33;12.40;;;;;;;24.71;77.44;101405.09;4995401;28;20030;-90
2023/06/23 06:19:42;;;;;;;19.30;13.23;;;;;;;24.78;76.39;101403.53;4996639;28;20037;-90
2023/06/23 06:22:09;;;;;;;20.67;12.52;;;;;;;24.83;76.66;101403.06;5029359;28;20447;-94
2023/06/23 06:24:35;;;;;;;24.27;13.80;;;;;;;24.82;76.51;101399.59;5009763;28;20030;-90
2023/06/23 06:27:01;;;;;;;18.55;12.90;;;;;;;24.87;76.25;101397.31;5014564;28;20037;-88
2023/06/23 06:29:27;;;;;;;19.80;13.10;;;;;;;24.89;76.41;101405.97;5029291;28;20202;-93
2023/06/23 06:31:54;;;;;;;20.45;13.27;;;;;;;25.00;76.22;101401.44;5032409;28;20029;-92
2023/06/23 06:34:19;;;;;;;20.35;13.60;;;;;;;25.02;76.32;101397.69;5039832;28;20018;-93
2023/06/23 06:36:45;;;;;;;15.95;12.02;;;;;;;25.15;76.28;101394.66;4997238;28;20025;-92
2023/06/23 06:39:10;;;;;;;17.75;13.18;;;;;;;25.27;75.54;101393.47;5015408;28;20041;-89
2023/06/23 06:41:35;;;;;;;21.40;12.90;;;;;;;25.24;75.92;101388.44;5029864;28;20056;-92
2023/06/23 06:44:02;;;;;;;23.00;13.60;;;;;;;25.33;75.72;101397.31;5040341;28;20418;-94
2023/06/23 06:46:28;;;;;;;21.42;12.43;;;;;;;25.37;75.92;101390.75;5032749;28;20033;-92
2023/06/23 06:48:55;;;;;;;18.20;12.88;;;;;;;25.44;75.66;101381.16;5026383;28;20037;-92
2023/06/23 06:51:20;;;;;;;24.98;14.20;;;;;;;25.55;75.13;101382.75;5028660;28;20021;-92
2023/06/23 06:53:46;;;;;;;18.55;12.73;;;;;;;25.49;75.12;101362.19;5028496;28;20038;-91
2023/06/23 06:56:11;;;;;;;19.80;14.05;;;;;;;25.74;75.21;101371.97;5024521;28;20483;-91
2023/06/23 06:58:37;;;;;;;19.45;13.55;;;;;;;25.73;73.80;101367.66;5024087;28;20032;-92
2023/06/23 07:01:03;;;;;;;23.33;13.02;;;;;;;25.80;73.78;101374.03;5030086;28;20029;-91
2023/06/23 07:03:28;;;;;;;18.65;13.23;;;;;;;25.80;73.77;101376.69;5014889;28;20099;-92
2023/06/23 07:05:54;;;;;;;19.08;12.55;;;;;;;25.98;72.57;101371.31;5006375;28;20091;-88
2023/06/23 07:08:20;;;;;;;21.13;14.90;;;;;;;25.87;73.34;101367.13;5010039;28;20085;-90
2023/06/23 07:10:45;;;;;;;22.42;12.98;;;;;;;25.89;72.59;101361.66;5009472;28;20037;-88
2023/06/23 07:13:11;;;;;;;17.67;11.88;;;;;;;25.98;73.02;101352.75;5038206;28;20025;-87
2023/06/23 07:15:36;;;;;;;22.48;13.20;;;;;;;26.14;72.60;101365.25;5045356;28;20040;-90
2023/06/23 07:18:04;;;;;;;23.27;13.07;;;;;;;26.25;70.91;101357.00;5036919;28;20033;-91
2023/06/23 07:20:29;;;;;;;24.38;12.73;;;;;;;26.35;71.72;101367.50;5013769;28;20483;-92
2023/06/23 07:22:56;;;;;;;17.95;12.10;;;;;;;26.36;70.05;101348.78;4988533;28;20029;-91
2023/06/23 07:25:21;;;;;;;18.45;13.23;;;;;;;26.55;69.87;101368.94;5025284;28;20029;-90
2023/06/23 07:27:48;;;;;;;20.08;13.13;;;;;;;26.74;68.96;101370.47;5010912;28;20026;-92
2023/06/23 07:30:13;;;;;;;19.08;12.20;;;;;;;26.76;68.14;101350.75;5027517;28;20613;-89
2023/06/23 07:32:39;;;;;;;17.65;12.68;;;;;;;26.80;68.45;101356.56;5010883;28;20034;-90
2023/06/23 07:35:06;;;;;;;19.80;12.07;;;;;;;26.84;67.64;101360.53;5006145;28;20380;-92
2023/06/23 07:37:31;;;;;;;19.73;12.50;;;;;;;26.85;67.77;101362.22;4993475;28;20055;-89
2023/06/23 07:39:57;;;;;;;19.02;12.63;;;;;;;26.87;67.56;101363.72;5026593;28;20511;-91
2023/06/23 07:42:23;;;;;;;16.80;12.27;;;;;;;26.99;67.59;101361.56;5000119;28;20033;-92
2023/06/23 07:44:49;;;;;;;16.95;12.25;;;;;;;27.13;67.85;101339.69;5012496;28;20029;-90
2023/06/23 07:47:14;;;;;;;17.05;12.05;;;;;;;27.24;67.02;101343.03;5048365;28;20510;-94
2023/06/23 07:49:40;;;;;;;20.58;13.43;;;;;;;27.43;66.91;101346.19;5014947;28;20025;-92
2023/06/23 07:52:06;;;;;;;21.77;13.98;;;;;;;27.55;66.39;101340.50;5002097;28;20688;-94
2023/06/23 07:54:32;;;;;;;19.48;12.32;;;;;;;27.76;65.33;101353.31;5038104;28;20036;-91
2023/06/23 07:56:58;;;;;;;18.88;11.80;;;;;;;27.87;64.73;101347.63;5028308;28;20030;-92
2023/06/23 07:59:26;;;;;;;18.33;12.65;;;;;;;27.95;64.43;101343.09;4992613;28;20503;-93
2023/06/23 08:01:52;;;;;;;17.27;12.23;;;;;;;28.00;64.19;101345.25;5025004;28;20482;-93
2023/06/23 08:04:18;;;;;;;22.30;12.25;;;;;;;28.13;64.12;101345.53;5022814;28;20036;-89
2023/06/23 08:06:43;;;;;;;17.88;11.30;;;;;;;28.14;63.92;101320.59;5032683;28;20037;-92
2023/06/23 08:09:12;;;;;;;15.65;11.57;;;;;;;28.33;63.82;101343.31;5019350;28;20022;-91
2023/06/23 08:11:40;;;;;;;16.00;11.77;;;;;;;28.53;63.09;101339.22;5038658;28;20054;-92
2023/06/23 08:14:07;;;;;;;15.63;11.80;;;;;;;28.56;62.27;101327.41;5043164;28;20499;-93
2023/06/23 08:16:33;;;;;;;17.48;12.88;;;;;;;28.67;62.39;101331.47;5037487;28;20129;-92
2023/06/23 08:18:59;;;;;;;18.52;12.32;;;;;;;28.80;61.85;101337.03;5030455;28;20037;-89
2023/06/23 08:21:24;;;;;;;16.02;11.68;;;;;;;28.94;61.84;101332.84;5025642;28;20087;-94
2023/06/23 08:23:50;;;;;;;15.93;11.07;;;;;;;29.03;61.06;101337.91;5020914;28;20030;-91
2023/06/23 08:26:15;;;;;;;15.32;11.55;;;;;;;29.16;60.18;101337.31;5015209;28;20017;-89
2023/06/23 08:28:41;;;;;;;17.20;11.43;;;;;;;29.30;61.17;101327.69;5032946;28;20112;-89
2023/06/23 08:31:07;;;;;;;26.33;11.73;;;;;;;29.41;60.24;101325.44;5007979;28;20025;-91
2023/06/23 08:33:33;;;;;;;18.08;11.70;;;;;;;29.60;58.03;101326.78;5034616;28;20041;-91
2023/06/23 08:36:01;;;;;;;13.93;10.38;;;;;;;29.56;58.08;101311.31;5086814;23;20199;-92
2023/06/23 08:38:26;;;;;;;16.25;11.50;;;;;;;29.74;57.12;101327.78;4997836;28;20069;-87
2023/06/23 08:40:53;;;;;;;16.77;10.45;;;;;;;29.94;56.11;101331.56;5019119;28;20088;-91
2023/06/23 08:43:25;;;;;;;12.60;9.48;;;;;;;30.03;55.17;101329.63;4981553;28;20065;-92
2023/06/23 08:45:55;;;;;;;9.70;8.02;;;;;;;30.10;52.48;101325.25;4988512;28;20037;-90
2023/06/23 08:48:23;;;;;;;10.90;8.50;;;;;;;30.10;52.68;101319.06;4995512;28;20041;-92
2023/06/23 08:50:48;;;;;;;15.55;10.18;;;;;;;30.21;53.99;101323.94;5011309;28;20083;-91
2023/06/23 08:53:14;;;;;;;9.18;7.03;;;;;;;30.28;49.51;101316.81;4995308;28;20037;-91
2023/06/23 08:55:39;;;;;;;12.20;7.47;;;;;;;30.36;50.63;101319.38;5012550;28;20034;-92
2023/06/23 08:58:05;;;;;;;10.10;6.35;;;;;;;30.38;49.32;101306.66;4993941;28;20042;-94
2023/06/23 09:00:31;;;;;;;12.43;7.15;;;;;;;30.39;46.72;101302.16;5023000;28;20117;-92
2023/06/23 09:02:56;;;;;;;8.55;6.10;;;;;;;30.58;47.72;101306.91;5027703;28;20033;-91
2023/06/23 09:05:22;;;;;;;6.97;5.53;;;;;;;30.77;46.60;101302.78;5010618;28;20080;-91
2023/06/23 09:07:47;;;;;;;9.88;7.10;;;;;;;30.84;48.61;101311.69;4994891;28;20045;-92
2023/06/23 09:10:13;;;;;;;10.60;6.80;;;;;;;30.84;47.79;101307.16;5012295;28;20418;-93
2023/06/23 09:12:42;;;;;;;9.85;7.38;;;;;;;31.02;50.03;101298.69;5002013;28;20084;-89
2023/06/23 09:15:09;;;;;;;14.27;8.73;;;;;;;31.08;48.85;101303.28;5023367;28;20108;-93
2023/06/23 09:17:34;;;;;;;10.77;7.65;;;;;;;31.07;47.20;101304.31;4998503;28;20043;-91
2023/06/23 09:20:00;;;;;;;9.40;6.28;;;;;;;31.13;43.45;101300.84;4998389;28;20038;-94
2023/06/23 09:22:25;;;;;;;8.98;6.72;;;;;;;31.04;44.71;101290.47;4991539;28;20034;-92
2023/06/23 09:24:51;;;;;;;10.13;7.35;;;;;;;31.22;45.94;101293.53;5004404;28;20092;-92
2023/06/23 09:27:17;;;;;;;13.70;8.15;;;;;;;31.49;47.64;101299.09;5026103;28;20467;-93
2023/06/23 09:29:43;;;;;;;13.02;8.80;;;;;;;31.54;48.26;101297.44;5003656;28;20481;-94
2023/06/23 09:32:09;;;;;;;13.88;10.07;;;;;;;31.57;48.93;101291.72;5016115;28;20104;-93
2023/06/23 09:34:35;;;;;;;13.40;10.32;;;;;;;31.54;48.71;101305.47;5002463;28;20033;-94
2023/06/23 09:37:06;;;;;;;14.93;9.23;;;;;;;31.58;48.57;101308.59;4995068;28;20060;-93
2023/06/23 09:39:36;;;;;;;12.95;9.32;;;;;;;31.60;48.77;101302.03;5013947;28;20042;-91
2023/06/23 09:42:03;;;;;;;14.30;10.27;;;;;;;31.62;48.66;101277.75;4999379;28;20026;-92
2023/06/23 09:44:49;;;;;;;14.73;9.52;;;;;;;31.89;47.96;101300.97;5015008;28;20125;-88
2023/06/23 09:47:15;;;;;;;12.80;9.73;;;;;;;31.87;48.83;101286.97;5033850;28;20121;-93
2023/06/23 09:49:42;;;;;;;12.88;9.90;;;;;;;31.89;48.59;101289.44;4992571;28;20060;-90
2023/06/23 09:52:09;;;;;;;14.75;10.30;;;;;;;31.80;47.99;101286.13;5009567;28;20416;-88
2023/06/23 09:54:39;;;;;;;13.93;9.45;;;;;;;31.80;47.10;101280.75;4990860;28;20026;-88
2023/06/23 09:57:15;;;;;;;11.30;9.20;;;;;;;31.86;47.77;101284.50;5028897;28;20036;-91
2023/06/23 09:59:42;;;;;;;12.07;8.73;;;;;;;31.91;47.12;101279.38;5012357;28;20048;-93
2023/06/23 10:02:08;;;;;;;13.57;9.52;;;;;;;32.03;48.34;101277.75;5016838;28;20040;-86
2023/06/23 10:04:34;;;;;;;13.18;10.43;;;;;;;32.15;47.81;101278.00;4991690;28;20027;-94
2023/06/23 10:07:02;;;;;;;13.20;8.93;;;;;;;32.16;48.05;101272.47;4991836;28;20520;-92
2023/06/23 10:09:27;;;;;;;12.65;9.15;;;;;;;32.19;47.23;101269.38;4999808;28;20026;-94
2023/06/23 10:11:56;;;;;;;13.57;9.73;;;;;;;32.32;46.83;101270.47;5020305;28;20033;-93
2023/06/23 10:14:21;;;;;;;16.50;10.15;;;;;;;32.42;46.89;101277.09;5017668;28;20046;-94
2023/06/23 10:16:49;;;;;;;12.20;9.75;;;;;;;32.51;46.64;101262.47;5023934;28;20065;-94
2023/06/23 10:19:17;;;;;;;12.00;9.55;;;;;;;32.62;47.96;101258.38;5020703;28;20030;-93
2023/06/23 10:21:43;;;;;;;13.02;9.48;;;;;;;32.68;48.10;101254.88;5001642;28;20030;-93
2023/06/23 10:24:33;;;;;;;12.43;9.45;;;;;;;32.89;46.57;101253.06;4997934;28;20037;-92
2023/06/23 10:26:58;;;;;;;12.23;9.68;;;;;;;33.03;45.65;101252.81;4993198;28;20385;-92
2023/06/23 10:29:24;;;;;;;15.02;9.95;;;;;;;33.10;45.84;101245.63;5008812;28;20022;-92
2023/06/23 10:31:51;;;;;;;11.32;9.85;;;;;;;33.05;46.13;101241.94;4978452;23;20098;-89
2023/06/23 10:34:17;;;;;;;13.65;9.40;;;;;;;33.09;45.21;101252.00;4945237;28;20114;-87
2023/06/23 10:36:43;;;;;;;12.05;9.57;;;;;;;33.13;45.15;101247.03;4937070;28;20027;-88
2023/06/23 10:39:10;;;;;;;13.82;9.80;;;;;;;33.28;44.55;101244.16;4948421;29;20042;-83
2023/06/23 10:41:36;;;;;;;14.15;10.45;;;;;;;33.50;45.32;101256.28;4962189;28;20035;-91
2023/06/23 10:44:02;;;;;;;16.30;10.93;;;;;;;33.51;44.34;101252.56;4962838;29;20078;-93
2023/06/23 10:46:28;;;;;;;15.23;10.27;;;;;;;33.60;43.39;101253.16;4951796;28;20031;-90
2023/06/23 10:48:53;;;;;;;15.23;9.80;;;;;;;33.57;43.03;101253.59;4951699;28;20042;-93
2023/06/23 10:51:19;;;;;;;12.55;9.82;;;;;;;33.63;44.20;101250.06;4951002;28;20042;-88
2023/06/23 10:53:59;;;;;;;11.57;9.85;;;;;;;33.73;44.24;101247.75;4951813;29;20035;-94
2023/06/23 10:56:45;;;;;;;17.35;10.50;;;;;;;33.77;43.40;101245.47;4946850;28;20031;-93
2023/06/23 10:59:27;;;;;;;16.95;10.98;;;;;;;33.83;43.68;101237.41;4954008;28;20086;-92
2023/06/23 11:02:12;;;;;;;12.27;9.70;;;;;;;33.85;43.13;101238.00;4952801;29;20023;-90
2023/06/23 11:04:38;;;;;;;14.35;10.07;;;;;;;34.00;42.98;101239.59;4954434;28;20042;-92
2023/06/23 11:07:15;;;;;;;11.57;9.90;;;;;;;34.00;42.13;101236.91;4937966;29;20512;-89
2023/06/23 11:10:02;;;;;;;12.73;10.35;;;;;;;34.18;42.20;101237.03;4968388;28;20027;-93
2023/06/23 11:12:44;;;;;;;11.93;9.57;;;;;;;34.14;42.08;101225.91;5012499;23;20157;-92
2023/06/23 11:15:19;;;;;;;13.00;10.30;;;;;;;34.17;42.20;101220.09;4984093;28;20471;-92
2023/06/23 11:17:49;;;;;;;13.55;9.65;;;;;;;34.27;41.01;101224.16;4976398;28;20046;-93